sensor_id;sensor_type;location;lat;lon;timestamp;temperature;humidity
42803;DHT22;28447;48.682;9.022;2022-08-05T00:02:07;22.00;99.90
42803;DHT22;28447;48.682;9.022;2022-08-05T00:04:32;21.80;99.90
42803;DHT22;28447;48.682;9.022;2022-08-05T00:06:58;21.70;99.90
42803;DHT22;28447;48.682;9.022;2022-08-05T00:09:24;21.80;99.90
42803;DHT22;28447;48.682;9.022;2022-08-05T00:11:49;21.70;99.90
42803;DHT22;28447;48.682;9.022;2022-08-05T00:14:16;21.70;99.90
42803;DHT22;28447;48.682;9.022;2022-08-05T00:16:41;21.60;99.90
42803;DHT22;28447;48.682;9.022;2022-08-05T00:19:07;21.60;99.90
42803;DHT22;28447;48.682;9.022;2022-08-05T00:21:33;21.80;99.90
42803;DHT22;28447;48.682;9.022;2022-08-05T00:23:58;21.70;99.90
42803;DHT22;28447;48.682;9.022;2022-08-05T00:26:25;21.80;99.90
42803;DHT22;28447;48.682;9.022;2022-08-05T00:28:51;21.70;99.90
42803;DHT22;28447;48.682;9.022;2022-08-05T00:31:17;21.60;99.90
42803;DHT22;28447;48.682;9.022;2022-08-05T00:33:43;21.50;99.90
42803;DHT22;28447;48.682;9.022;2022-08-05T00:36:08;21.30;99.90
42803;DHT22;28447;48.682;9.022;2022-08-05T00:38:34;21.40;99.90
42803;DHT22;28447;48.682;9.022;2022-08-05T00:41:00;21.30;99.90
42803;DHT22;28447;48.682;9.022;2022-08-05T00:43:26;21.30;99.90
42803;DHT22;28447;48.682;9.022;2022-08-05T00:45:51;21.20;99.90
42803;DHT22;28447;48.682;9.022;2022-08-05T00:48:20;21.10;99.90
42803;DHT22;28447;48.682;9.022;2022-08-05T00:50:48;21.10;99.90
42803;DHT22;28447;48.682;9.022;2022-08-05T00:53:15;21.10;99.90
42803;DHT22;28447;48.682;9.022;2022-08-05T00:55:41;21.00;99.90
42803;DHT22;28447;48.682;9.022;2022-08-05T00:58:07;20.90;99.90
42803;DHT22;28447;48.682;9.022;2022-08-05T01:00:33;20.90;99.90
42803;DHT22;28447;48.682;9.022;2022-08-05T01:02:59;21.00;99.90
42803;DHT22;28447;48.682;9.022;2022-08-05T01:05:25;21.20;99.90
42803;DHT22;28447;48.682;9.022;2022-08-05T01:07:50;21.60;99.90
42803;DHT22;28447;48.682;9.022;2022-08-05T01:10:20;21.80;99.90
42803;DHT22;28447;48.682;9.022;2022-08-05T01:12:51;22.00;99.90
42803;DHT22;28447;48.682;9.022;2022-08-05T01:15:22;22.00;99.90
42803;DHT22;28447;48.682;9.022;2022-08-05T01:17:54;22.00;99.90
42803;DHT22;28447;48.682;9.022;2022-08-05T01:20:36;22.30;99.90
42803;DHT22;28447;48.682;9.022;2022-08-05T01:28:53;22.80;99.90
42803;DHT22;28447;48.682;9.022;2022-08-05T01:31:33;22.70;99.90
42803;DHT22;28447;48.682;9.022;2022-08-05T01:34:20;22.90;99.90
42803;DHT22;28447;48.682;9.022;2022-08-05T01:36:51;22.80;99.90
42803;DHT22;28447;48.682;9.022;2022-08-05T01:39:18;22.80;99.90
42803;DHT22;28447;48.682;9.022;2022-08-05T01:41:46;23.00;99.90
42803;DHT22;28447;48.682;9.022;2022-08-05T01:44:14;23.00;99.90
42803;DHT22;28447;48.682;9.022;2022-08-05T01:46:41;23.20;99.90
42803;DHT22;28447;48.682;9.022;2022-08-05T01:49:10;23.30;99.90
42803;DHT22;28447;48.682;9.022;2022-08-05T01:51:37;23.50;99.90
42803;DHT22;28447;48.682;9.022;2022-08-05T01:54:06;23.50;99.90
42803;DHT22;28447;48.682;9.022;2022-08-05T01:56:38;23.40;99.90
42803;DHT22;28447;48.682;9.022;2022-08-05T01:59:07;23.40;99.90
42803;DHT22;28447;48.682;9.022;2022-08-05T02:01:35;23.50;99.90
42803;DHT22;28447;48.682;9.022;2022-08-05T02:04:03;23.40;99.90
42803;DHT22;28447;48.682;9.022;2022-08-05T02:06:29;23.40;99.90
42803;DHT22;28447;48.682;9.022;2022-08-05T02:08:55;23.40;99.90
42803;DHT22;28447;48.682;9.022;2022-08-05T02:11:22;23.30;99.90
42803;DHT22;28447;48.682;9.022;2022-08-05T02:14:04;23.30;99.90
42803;DHT22;28447;48.682;9.022;2022-08-05T02:19:18;23.20;99.90
42803;DHT22;28447;48.682;9.022;2022-08-05T02:21:51;23.30;99.90
42803;DHT22;28447;48.682;9.022;2022-08-05T02:24:20;23.20;99.90
42803;DHT22;28447;48.682;9.022;2022-08-05T02:26:50;23.20;99.90
42803;DHT22;28447;48.682;9.022;2022-08-05T02:29:20;23.20;99.90
42803;DHT22;28447;48.682;9.022;2022-08-05T02:31:49;23.20;99.90
42803;DHT22;28447;48.682;9.022;2022-08-05T02:34:16;23.10;99.90
42803;DHT22;28447;48.682;9.022;2022-08-05T02:36:50;23.00;99.90
42803;DHT22;28447;48.682;9.022;2022-08-05T02:39:19;23.00;99.90
42803;DHT22;28447;48.682;9.022;2022-08-05T02:41:49;23.00;99.90
42803;DHT22;28447;48.682;9.022;2022-08-05T02:44:17;23.10;99.90
42803;DHT22;28447;48.682;9.022;2022-08-05T02:46:45;23.00;99.90
42803;DHT22;28447;48.682;9.022;2022-08-05T02:49:14;23.00;99.90
42803;DHT22;28447;48.682;9.022;2022-08-05T02:51:40;23.00;99.90
42803;DHT22;28447;48.682;9.022;2022-08-05T02:54:06;22.90;99.90
42803;DHT22;28447;48.682;9.022;2022-08-05T02:56:34;22.80;99.90
42803;DHT22;28447;48.682;9.022;2022-08-05T02:59:00;22.80;99.90
42803;DHT22;28447;48.682;9.022;2022-08-05T03:01:27;22.60;99.90
42803;DHT22;28447;48.682;9.022;2022-08-05T03:03:57;22.70;99.90
42803;DHT22;28447;48.682;9.022;2022-08-05T03:06:25;22.40;99.90
42803;DHT22;28447;48.682;9.022;2022-08-05T03:08:52;22.50;99.90
42803;DHT22;28447;48.682;9.022;2022-08-05T03:11:25;22.50;99.90
42803;DHT22;28447;48.682;9.022;2022-08-05T03:13:52;22.60;99.90
42803;DHT22;28447;48.682;9.022;2022-08-05T03:16:19;20.40;99.90
42803;DHT22;28447;48.682;9.022;2022-08-05T03:18:45;22.50;99.90
42803;DHT22;28447;48.682;9.022;2022-08-05T03:21:12;22.60;99.90
42803;DHT22;28447;48.682;9.022;2022-08-05T03:23:39;22.60;99.90
42803;DHT22;28447;48.682;9.022;2022-08-05T03:26:05;22.40;99.90
42803;DHT22;28447;48.682;9.022;2022-08-05T03:28:31;22.30;99.90
42803;DHT22;28447;48.682;9.022;2022-08-05T03:30:59;22.20;99.90
42803;DHT22;28447;48.682;9.022;2022-08-05T03:33:27;22.20;99.90
42803;DHT22;28447;48.682;9.022;2022-08-05T03:35:55;22.20;99.90
42803;DHT22;28447;48.682;9.022;2022-08-05T03:38:25;22.40;99.90
42803;DHT22;28447;48.682;9.022;2022-08-05T03:40:51;22.10;99.90
42803;DHT22;28447;48.682;9.022;2022-08-05T03:43:19;21.90;99.90
42803;DHT22;28447;48.682;9.022;2022-08-05T03:45:46;21.80;99.90
42803;DHT22;28447;48.682;9.022;2022-08-05T03:48:12;21.70;99.90
42803;DHT22;28447;48.682;9.022;2022-08-05T03:50:51;21.40;99.90
42803;DHT22;28447;48.682;9.022;2022-08-05T03:53:30;21.20;99.90
42803;DHT22;28447;48.682;9.022;2022-08-05T03:58:32;21.00;99.90
42803;DHT22;28447;48.682;9.022;2022-08-05T04:01:01;20.90;99.90
42803;DHT22;28447;48.682;9.022;2022-08-05T04:03:28;21.00;99.90
42803;DHT22;28447;48.682;9.022;2022-08-05T04:06:00;20.90;99.90
42803;DHT22;28447;48.682;9.022;2022-08-05T04:08:26;21.00;99.90
42803;DHT22;28447;48.682;9.022;2022-08-05T04:10:55;21.10;99.90
42803;DHT22;28447;48.682;9.022;2022-08-05T04:13:21;21.00;99.90
42803;DHT22;28447;48.682;9.022;2022-08-05T04:15:48;20.90;99.90
42803;DHT22;28447;48.682;9.022;2022-08-05T04:18:14;20.80;99.90
42803;DHT22;28447;48.682;9.022;2022-08-05T04:20:40;20.60;99.90
42803;DHT22;28447;48.682;9.022;2022-08-05T04:23:07;20.50;99.90
42803;DHT22;28447;48.682;9.022;2022-08-05T04:25:32;20.50;99.90
42803;DHT22;28447;48.682;9.022;2022-08-05T04:27:58;20.50;99.90
42803;DHT22;28447;48.682;9.022;2022-08-05T04:30:24;20.50;99.90
42803;DHT22;28447;48.682;9.022;2022-08-05T04:32:49;20.50;99.90
42803;DHT22;28447;48.682;9.022;2022-08-05T04:35:15;20.50;99.90
42803;DHT22;28447;48.682;9.022;2022-08-05T04:37:41;20.30;99.90
42803;DHT22;28447;48.682;9.022;2022-08-05T04:40:07;20.40;99.90
42803;DHT22;28447;48.682;9.022;2022-08-05T04:42:33;20.50;99.90
42803;DHT22;28447;48.682;9.022;2022-08-05T04:44:58;20.40;99.90
42803;DHT22;28447;48.682;9.022;2022-08-05T04:47:24;20.50;99.90
42803;DHT22;28447;48.682;9.022;2022-08-05T04:49:49;20.60;99.90
42803;DHT22;28447;48.682;9.022;2022-08-05T04:52:15;20.60;99.90
42803;DHT22;28447;48.682;9.022;2022-08-05T04:54:41;20.70;99.90
42803;DHT22;28447;48.682;9.022;2022-08-05T04:57:06;20.90;99.90
42803;DHT22;28447;48.682;9.022;2022-08-05T04:59:32;20.90;99.90
42803;DHT22;28447;48.682;9.022;2022-08-05T05:01:58;21.00;99.90
42803;DHT22;28447;48.682;9.022;2022-08-05T05:04:23;21.00;99.90
42803;DHT22;28447;48.682;9.022;2022-08-05T05:06:49;21.10;99.90
42803;DHT22;28447;48.682;9.022;2022-08-05T05:09:14;21.30;99.90
42803;DHT22;28447;48.682;9.022;2022-08-05T05:11:40;21.50;99.90
42803;DHT22;28447;48.682;9.022;2022-08-05T05:14:06;21.50;99.90
42803;DHT22;28447;48.682;9.022;2022-08-05T05:16:31;21.60;99.90
42803;DHT22;28447;48.682;9.022;2022-08-05T05:18:57;21.70;99.90
42803;DHT22;28447;48.682;9.022;2022-08-05T05:21:23;22.00;99.90
42803;DHT22;28447;48.682;9.022;2022-08-05T05:23:48;22.00;99.90
42803;DHT22;28447;48.682;9.022;2022-08-05T05:26:14;22.20;99.90
42803;DHT22;28447;48.682;9.022;2022-08-05T05:28:40;22.20;99.90
42803;DHT22;28447;48.682;9.022;2022-08-05T05:31:05;22.20;99.90
42803;DHT22;28447;48.682;9.022;2022-08-05T05:33:31;22.40;99.90
42803;DHT22;28447;48.682;9.022;2022-08-05T05:35:56;22.40;99.90
42803;DHT22;28447;48.682;9.022;2022-08-05T05:38:22;22.50;99.90
42803;DHT22;28447;48.682;9.022;2022-08-05T05:40:48;22.60;99.90
42803;DHT22;28447;48.682;9.022;2022-08-05T05:43:13;22.70;99.90
42803;DHT22;28447;48.682;9.022;2022-08-05T05:45:39;22.80;99.90
42803;DHT22;28447;48.682;9.022;2022-08-05T05:48:04;22.90;99.90
42803;DHT22;28447;48.682;9.022;2022-08-05T05:50:32;23.20;99.90
42803;DHT22;28447;48.682;9.022;2022-08-05T05:52:58;23.30;99.90
42803;DHT22;28447;48.682;9.022;2022-08-05T05:55:23;23.50;99.90
42803;DHT22;28447;48.682;9.022;2022-08-05T05:57:49;23.60;99.90
42803;DHT22;28447;48.682;9.022;2022-08-05T06:00:19;23.80;99.90
42803;DHT22;28447;48.682;9.022;2022-08-05T06:02:45;23.80;99.90
42803;DHT22;28447;48.682;9.022;2022-08-05T06:05:13;23.80;99.90
42803;DHT22;28447;48.682;9.022;2022-08-05T06:07:39;23.70;99.90
42803;DHT22;28447;48.682;9.022;2022-08-05T06:10:06;23.80;99.90
42803;DHT22;28447;48.682;9.022;2022-08-05T06:12:33;23.70;99.90
42803;DHT22;28447;48.682;9.022;2022-08-05T06:15:00;23.70;99.90
42803;DHT22;28447;48.682;9.022;2022-08-05T06:17:26;24.00;99.90
42803;DHT22;28447;48.682;9.022;2022-08-05T06:19:51;23.80;99.90
42803;DHT22;28447;48.682;9.022;2022-08-05T06:22:25;23.50;99.90
42803;DHT22;28447;48.682;9.022;2022-08-05T06:24:51;23.30;99.90
42803;DHT22;28447;48.682;9.022;2022-08-05T06:27:17;23.60;99.90
42803;DHT22;28447;48.682;9.022;2022-08-05T06:29:43;24.00;99.90
42803;DHT22;28447;48.682;9.022;2022-08-05T06:32:09;24.50;99.90
42803;DHT22;28447;48.682;9.022;2022-08-05T06:34:35;24.70;99.90
42803;DHT22;28447;48.682;9.022;2022-08-05T06:37:01;24.70;99.90
42803;DHT22;28447;48.682;9.022;2022-08-05T06:39:27;24.80;99.90
42803;DHT22;28447;48.682;9.022;2022-08-05T06:41:52;25.00;99.90
42803;DHT22;28447;48.682;9.022;2022-08-05T06:44:18;24.90;99.90
42803;DHT22;28447;48.682;9.022;2022-08-05T06:46:44;24.90;99.90
42803;DHT22;28447;48.682;9.022;2022-08-05T06:49:09;24.70;99.90
42803;DHT22;28447;48.682;9.022;2022-08-05T06:51:35;24.80;99.90
42803;DHT22;28447;48.682;9.022;2022-08-05T06:54:02;24.90;99.90
42803;DHT22;28447;48.682;9.022;2022-08-05T06:56:29;24.50;99.90
42803;DHT22;28447;48.682;9.022;2022-08-05T06:58:55;24.50;99.90
42803;DHT22;28447;48.682;9.022;2022-08-05T07:01:21;24.80;99.90
42803;DHT22;28447;48.682;9.022;2022-08-05T07:03:47;24.90;99.90
42803;DHT22;28447;48.682;9.022;2022-08-05T07:06:13;24.90;99.90
42803;DHT22;28447;48.682;9.022;2022-08-05T07:08:39;25.10;99.90
42803;DHT22;28447;48.682;9.022;2022-08-05T07:11:04;25.30;99.90
42803;DHT22;28447;48.682;9.022;2022-08-05T07:13:33;25.50;99.90
42803;DHT22;28447;48.682;9.022;2022-08-05T07:16:17;25.60;99.90
42803;DHT22;28447;48.682;9.022;2022-08-05T07:19:02;25.50;99.90
42803;DHT22;28447;48.682;9.022;2022-08-05T07:21:27;25.60;99.90
42803;DHT22;28447;48.682;9.022;2022-08-05T07:23:53;25.60;99.90
42803;DHT22;28447;48.682;9.022;2022-08-05T07:26:19;25.40;99.90
42803;DHT22;28447;48.682;9.022;2022-08-05T07:31:10;25.80;99.90
42803;DHT22;28447;48.682;9.022;2022-08-05T07:33:36;25.70;99.90
42803;DHT22;28447;48.682;9.022;2022-08-05T07:36:01;25.80;99.90
42803;DHT22;28447;48.682;9.022;2022-08-05T07:38:27;25.80;99.90
42803;DHT22;28447;48.682;9.022;2022-08-05T07:40:53;26.10;99.90
42803;DHT22;28447;48.682;9.022;2022-08-05T07:43:19;26.30;99.90
42803;DHT22;28447;48.682;9.022;2022-08-05T07:45:44;26.50;99.90
42803;DHT22;28447;48.682;9.022;2022-08-05T07:48:10;26.80;99.90
42803;DHT22;28447;48.682;9.022;2022-08-05T07:50:36;26.70;99.90
42803;DHT22;28447;48.682;9.022;2022-08-05T07:53:01;26.90;99.90
42803;DHT22;28447;48.682;9.022;2022-08-05T07:55:27;26.70;99.90
42803;DHT22;28447;48.682;9.022;2022-08-05T07:57:53;26.90;99.90
42803;DHT22;28447;48.682;9.022;2022-08-05T08:00:19;27.20;99.90
42803;DHT22;28447;48.682;9.022;2022-08-05T08:02:45;27.10;99.90
42803;DHT22;28447;48.682;9.022;2022-08-05T08:05:10;27.20;99.90
42803;DHT22;28447;48.682;9.022;2022-08-05T08:07:36;26.80;99.90
42803;DHT22;28447;48.682;9.022;2022-08-05T08:10:03;26.70;99.90
42803;DHT22;28447;48.682;9.022;2022-08-05T08:12:28;26.70;99.90
42803;DHT22;28447;48.682;9.022;2022-08-05T08:14:54;26.80;99.90
42803;DHT22;28447;48.682;9.022;2022-08-05T08:17:19;27.00;99.90
42803;DHT22;28447;48.682;9.022;2022-08-05T08:19:45;27.40;99.90
42803;DHT22;28447;48.682;9.022;2022-08-05T08:22:11;27.10;99.90
42803;DHT22;28447;48.682;9.022;2022-08-05T08:24:37;27.60;99.90
42803;DHT22;28447;48.682;9.022;2022-08-05T08:27:04;28.00;99.90
42803;DHT22;28447;48.682;9.022;2022-08-05T08:29:30;28.00;99.90
42803;DHT22;28447;48.682;9.022;2022-08-05T08:31:55;27.90;99.90
42803;DHT22;28447;48.682;9.022;2022-08-05T08:34:23;28.10;99.90
42803;DHT22;28447;48.682;9.022;2022-08-05T08:36:49;27.90;99.90
42803;DHT22;28447;48.682;9.022;2022-08-05T08:39:15;28.00;99.90
42803;DHT22;28447;48.682;9.022;2022-08-05T08:41:46;27.70;99.90
42803;DHT22;28447;48.682;9.022;2022-08-05T08:44:17;27.90;99.90
42803;DHT22;28447;48.682;9.022;2022-08-05T08:46:43;27.50;99.90
42803;DHT22;28447;48.682;9.022;2022-08-05T08:49:13;27.60;99.90
42803;DHT22;28447;48.682;9.022;2022-08-05T08:51:40;27.40;99.90
42803;DHT22;28447;48.682;9.022;2022-08-05T08:54:07;27.50;99.90
42803;DHT22;28447;48.682;9.022;2022-08-05T08:56:32;27.30;99.90
42803;DHT22;28447;48.682;9.022;2022-08-05T08:58:59;27.40;99.90
42803;DHT22;28447;48.682;9.022;2022-08-05T09:01:25;28.70;99.90
42803;DHT22;28447;48.682;9.022;2022-08-05T09:03:52;28.30;99.90
42803;DHT22;28447;48.682;9.022;2022-08-05T09:06:19;28.40;99.90
42803;DHT22;28447;48.682;9.022;2022-08-05T09:08:44;28.20;99.90
42803;DHT22;28447;48.682;9.022;2022-08-05T09:11:10;27.90;99.90
42803;DHT22;28447;48.682;9.022;2022-08-05T09:13:37;28.40;99.90
42803;DHT22;28447;48.682;9.022;2022-08-05T09:16:04;29.20;99.90
42803;DHT22;28447;48.682;9.022;2022-08-05T09:18:34;28.80;99.90
42803;DHT22;28447;48.682;9.022;2022-08-05T09:21:00;28.80;99.90
42803;DHT22;28447;48.682;9.022;2022-08-05T09:23:26;28.30;99.90
42803;DHT22;28447;48.682;9.022;2022-08-05T09:26:08;28.30;99.90
42803;DHT22;28447;48.682;9.022;2022-08-05T09:28:36;28.30;99.90
42803;DHT22;28447;48.682;9.022;2022-08-05T09:31:11;28.90;99.90
42803;DHT22;28447;48.682;9.022;2022-08-05T09:33:51;29.10;99.90
42803;DHT22;28447;48.682;9.022;2022-08-05T09:36:17;29.70;99.90
42803;DHT22;28447;48.682;9.022;2022-08-05T09:39:04;29.20;99.90
42803;DHT22;28447;48.682;9.022;2022-08-05T09:41:30;29.10;99.90
42803;DHT22;28447;48.682;9.022;2022-08-05T09:43:56;29.40;99.90
42803;DHT22;28447;48.682;9.022;2022-08-05T09:46:28;29.20;99.90
42803;DHT22;28447;48.682;9.022;2022-08-05T09:48:59;29.90;99.70
42803;DHT22;28447;48.682;9.022;2022-08-05T09:51:36;29.90;99.70
42803;DHT22;28447;48.682;9.022;2022-08-05T09:54:04;29.90;98.00
42803;DHT22;28447;48.682;9.022;2022-08-05T09:56:33;29.90;97.90
42803;DHT22;28447;48.682;9.022;2022-08-05T09:59:07;30.20;99.30
42803;DHT22;28447;48.682;9.022;2022-08-05T10:01:35;30.50;97.70
42803;DHT22;28447;48.682;9.022;2022-08-05T10:04:04;29.70;98.70
42803;DHT22;28447;48.682;9.022;2022-08-05T10:06:31;30.70;99.90
42803;DHT22;28447;48.682;9.022;2022-08-05T10:09:15;31.50;97.70
42803;DHT22;28447;48.682;9.022;2022-08-05T10:11:43;32.80;95.20
42803;DHT22;28447;48.682;9.022;2022-08-05T10:14:27;33.30;92.40
42803;DHT22;28447;48.682;9.022;2022-08-05T10:16:54;34.30;92.70
42803;DHT22;28447;48.682;9.022;2022-08-05T10:19:26;35.10;89.40
42803;DHT22;28447;48.682;9.022;2022-08-05T10:21:52;34.60;88.30
42803;DHT22;28447;48.682;9.022;2022-08-05T10:24:19;33.90;90.10
42803;DHT22;28447;48.682;9.022;2022-08-05T10:26:47;34.50;90.30
42803;DHT22;28447;48.682;9.022;2022-08-05T10:29:13;34.20;88.90
42803;DHT22;28447;48.682;9.022;2022-08-05T10:31:39;33.00;87.30
42803;DHT22;28447;48.682;9.022;2022-08-05T10:34:08;33.00;91.10
42803;DHT22;28447;48.682;9.022;2022-08-05T10:36:38;32.80;85.60
42803;DHT22;28447;48.682;9.022;2022-08-05T10:39:09;32.80;86.90
42803;DHT22;28447;48.682;9.022;2022-08-05T10:41:45;33.90;85.90
42803;DHT22;28447;48.682;9.022;2022-08-05T10:44:15;34.30;86.40
42803;DHT22;28447;48.682;9.022;2022-08-05T10:46:49;33.90;88.20
42803;DHT22;28447;48.682;9.022;2022-08-05T10:49:15;34.20;86.70
42803;DHT22;28447;48.682;9.022;2022-08-05T10:51:49;34.20;85.50
42803;DHT22;28447;48.682;9.022;2022-08-05T10:54:15;34.70;82.40
42803;DHT22;28447;48.682;9.022;2022-08-05T10:56:50;34.90;83.60
42803;DHT22;28447;48.682;9.022;2022-08-05T10:59:25;35.00;81.70
42803;DHT22;28447;48.682;9.022;2022-08-05T11:02:07;35.80;77.40
42803;DHT22;28447;48.682;9.022;2022-08-05T11:04:44;34.70;77.70
42803;DHT22;28447;48.682;9.022;2022-08-05T11:07:11;32.90;83.90
42803;DHT22;28447;48.682;9.022;2022-08-05T11:09:46;32.80;86.40
42803;DHT22;28447;48.682;9.022;2022-08-05T11:15:25;33.30;80.70
42803;DHT22;28447;48.682;9.022;2022-08-05T11:18:07;32.40;83.60
42803;DHT22;28447;48.682;9.022;2022-08-05T11:20:44;32.10;82.40
42803;DHT22;28447;48.682;9.022;2022-08-05T11:26:06;32.10;79.60
42803;DHT22;28447;48.682;9.022;2022-08-05T11:33:33;34.20;81.50
42803;DHT22;28447;48.682;9.022;2022-08-05T11:36:08;34.80;79.00
42803;DHT22;28447;48.682;9.022;2022-08-05T11:41:15;33.40;78.30
42803;DHT22;28447;48.682;9.022;2022-08-05T11:48:59;35.20;75.80
42803;DHT22;28447;48.682;9.022;2022-08-05T11:51:26;34.60;77.40
42803;DHT22;28447;48.682;9.022;2022-08-05T11:53:53;35.10;77.20
42803;DHT22;28447;48.682;9.022;2022-08-05T11:56:20;36.00;74.80
42803;DHT22;28447;48.682;9.022;2022-08-05T11:58:47;35.20;73.60
42803;DHT22;28447;48.682;9.022;2022-08-05T12:01:15;36.80;75.90
42803;DHT22;28447;48.682;9.022;2022-08-05T12:03:46;37.50;76.00
42803;DHT22;28447;48.682;9.022;2022-08-05T12:06:15;39.00;71.70
42803;DHT22;28447;48.682;9.022;2022-08-05T12:08:44;38.80;71.70
42803;DHT22;28447;48.682;9.022;2022-08-05T12:11:36;38.60;74.10
42803;DHT22;28447;48.682;9.022;2022-08-05T12:14:06;39.20;73.20
42803;DHT22;28447;48.682;9.022;2022-08-05T12:16:41;37.50;71.40
42803;DHT22;28447;48.682;9.022;2022-08-05T12:19:09;34.50;70.80
42803;DHT22;28447;48.682;9.022;2022-08-05T12:21:47;34.90;71.30
42803;DHT22;28447;48.682;9.022;2022-08-05T12:24:19;36.30;73.70
42803;DHT22;28447;48.682;9.022;2022-08-05T12:26:50;35.40;72.50
42803;DHT22;28447;48.682;9.022;2022-08-05T12:29:18;37.00;73.70
42803;DHT22;28447;48.682;9.022;2022-08-05T12:34:11;36.80;68.60
42803;DHT22;28447;48.682;9.022;2022-08-05T12:36:37;33.90;75.40
42803;DHT22;28447;48.682;9.022;2022-08-05T12:39:04;35.20;75.30
42803;DHT22;28447;48.682;9.022;2022-08-05T12:41:40;36.90;70.50
42803;DHT22;28447;48.682;9.022;2022-08-05T12:44:11;39.20;71.70
42803;DHT22;28447;48.682;9.022;2022-08-05T12:46:38;37.60;70.00
42803;DHT22;28447;48.682;9.022;2022-08-05T12:49:13;37.90;73.80
42803;DHT22;28447;48.682;9.022;2022-08-05T12:51:50;37.70;67.90
42803;DHT22;28447;48.682;9.022;2022-08-05T12:54:22;36.00;71.10
42803;DHT22;28447;48.682;9.022;2022-08-05T12:56:56;35.50;71.90
42803;DHT22;28447;48.682;9.022;2022-08-05T12:59:27;34.40;73.00
42803;DHT22;28447;48.682;9.022;2022-08-05T13:01:56;35.50;72.40
42803;DHT22;28447;48.682;9.022;2022-08-05T13:04:26;37.10;69.80
42803;DHT22;28447;48.682;9.022;2022-08-05T13:06:56;37.30;68.30
42803;DHT22;28447;48.682;9.022;2022-08-05T13:09:22;39.00;67.50
42803;DHT22;28447;48.682;9.022;2022-08-05T13:11:48;40.20;66.80
42803;DHT22;28447;48.682;9.022;2022-08-05T13:14:19;38.10;66.30
42803;DHT22;28447;48.682;9.022;2022-08-05T13:16:51;38.60;68.70
42803;DHT22;28447;48.682;9.022;2022-08-05T13:19:20;37.80;65.60
42803;DHT22;28447;48.682;9.022;2022-08-05T13:21:46;36.80;66.30
42803;DHT22;28447;48.682;9.022;2022-08-05T13:24:13;36.50;67.50
42803;DHT22;28447;48.682;9.022;2022-08-05T13:26:38;34.30;70.70
42803;DHT22;28447;48.682;9.022;2022-08-05T13:29:04;32.60;73.70
42803;DHT22;28447;48.682;9.022;2022-08-05T13:31:30;32.10;74.80
42803;DHT22;28447;48.682;9.022;2022-08-05T13:33:55;31.90;75.60
42803;DHT22;28447;48.682;9.022;2022-08-05T13:36:21;32.80;76.10
42803;DHT22;28447;48.682;9.022;2022-08-05T13:38:47;33.20;77.50
42803;DHT22;28447;48.682;9.022;2022-08-05T13:41:12;33.30;77.80
42803;DHT22;28447;48.682;9.022;2022-08-05T13:43:40;32.80;74.60
42803;DHT22;28447;48.682;9.022;2022-08-05T13:46:05;33.40;74.40
42803;DHT22;28447;48.682;9.022;2022-08-05T13:48:32;34.60;73.10
42803;DHT22;28447;48.682;9.022;2022-08-05T13:51:12;35.20;74.30
42803;DHT22;28447;48.682;9.022;2022-08-05T13:53:38;35.40;74.20
42803;DHT22;28447;48.682;9.022;2022-08-05T13:56:04;33.50;75.50
42803;DHT22;28447;48.682;9.022;2022-08-05T13:58:30;33.00;75.20
42803;DHT22;28447;48.682;9.022;2022-08-05T14:00:56;32.90;78.10
42803;DHT22;28447;48.682;9.022;2022-08-05T14:03:22;33.10;77.30
42803;DHT22;28447;48.682;9.022;2022-08-05T14:05:48;33.30;76.00
42803;DHT22;28447;48.682;9.022;2022-08-05T14:08:13;32.50;78.30
42803;DHT22;28447;48.682;9.022;2022-08-05T14:10:39;32.20;78.60
42803;DHT22;28447;48.682;9.022;2022-08-05T14:13:05;31.50;78.50
42803;DHT22;28447;48.682;9.022;2022-08-05T14:15:34;31.50;80.80
42803;DHT22;28447;48.682;9.022;2022-08-05T14:18:00;31.00;80.50
42803;DHT22;28447;48.682;9.022;2022-08-05T14:20:29;31.00;80.80
42803;DHT22;28447;48.682;9.022;2022-08-05T14:22:57;31.00;81.10
42803;DHT22;28447;48.682;9.022;2022-08-05T14:25:22;30.60;81.70
42803;DHT22;28447;48.682;9.022;2022-08-05T14:27:49;30.10;83.00
42803;DHT22;28447;48.682;9.022;2022-08-05T14:30:15;30.30;83.00
42803;DHT22;28447;48.682;9.022;2022-08-05T14:32:41;30.10;84.20
42803;DHT22;28447;48.682;9.022;2022-08-05T14:35:07;30.40;83.90
42803;DHT22;28447;48.682;9.022;2022-08-05T14:37:33;30.60;83.50
42803;DHT22;28447;48.682;9.022;2022-08-05T14:39:59;30.30;83.60
42803;DHT22;28447;48.682;9.022;2022-08-05T14:44:51;29.70;85.30
42803;DHT22;28447;48.682;9.022;2022-08-05T14:47:17;29.70;86.30
42803;DHT22;28447;48.682;9.022;2022-08-05T14:49:42;29.70;87.20
42803;DHT22;28447;48.682;9.022;2022-08-05T14:52:08;29.40;88.10
42803;DHT22;28447;48.682;9.022;2022-08-05T14:54:34;29.20;87.50
42803;DHT22;28447;48.682;9.022;2022-08-05T14:56:59;29.40;87.90
42803;DHT22;28447;48.682;9.022;2022-08-05T14:59:26;29.30;91.20
42803;DHT22;28447;48.682;9.022;2022-08-05T15:01:52;29.40;99.90
42803;DHT22;28447;48.682;9.022;2022-08-05T15:04:18;28.20;99.90
42803;DHT22;28447;48.682;9.022;2022-08-05T15:06:44;26.70;99.90
42803;DHT22;28447;48.682;9.022;2022-08-05T15:09:09;27.40;99.90
42803;DHT22;28447;48.682;9.022;2022-08-05T15:11:35;27.30;99.90
42803;DHT22;28447;48.682;9.022;2022-08-05T15:50:35;33.00;99.90
42803;DHT22;28447;48.682;9.022;2022-08-05T15:53:01;32.50;99.90
42803;DHT22;28447;48.682;9.022;2022-08-05T16:07:37;32.40;99.90
42803;DHT22;28447;48.682;9.022;2022-08-05T16:10:03;32.10;99.90
42803;DHT22;28447;48.682;9.022;2022-08-05T16:12:29;31.50;99.90
42803;DHT22;28447;48.682;9.022;2022-08-05T16:14:55;30.90;99.90
42803;DHT22;28447;48.682;9.022;2022-08-05T16:17:21;30.70;99.90
42803;DHT22;28447;48.682;9.022;2022-08-05T16:19:47;32.00;99.90
42803;DHT22;28447;48.682;9.022;2022-08-05T16:22:13;32.40;99.90
42803;DHT22;28447;48.682;9.022;2022-08-05T16:24:39;30.00;99.90
42803;DHT22;28447;48.682;9.022;2022-08-05T16:27:05;29.40;99.90
42803;DHT22;28447;48.682;9.022;2022-08-05T16:29:31;29.10;99.90
42803;DHT22;28447;48.682;9.022;2022-08-05T16:31:57;28.60;99.90
42803;DHT22;28447;48.682;9.022;2022-08-05T16:34:24;27.80;99.90
42803;DHT22;28447;48.682;9.022;2022-08-05T16:36:49;27.20;99.90
42803;DHT22;28447;48.682;9.022;2022-08-05T16:39:16;27.60;99.90
42803;DHT22;28447;48.682;9.022;2022-08-05T16:41:42;28.20;99.90
42803;DHT22;28447;48.682;9.022;2022-08-05T16:44:16;29.10;99.90
42803;DHT22;28447;48.682;9.022;2022-08-05T16:46:43;29.80;99.90
42803;DHT22;28447;48.682;9.022;2022-08-05T16:49:10;28.80;99.90
42803;DHT22;28447;48.682;9.022;2022-08-05T16:51:39;28.50;99.90
42803;DHT22;28447;48.682;9.022;2022-08-05T16:54:05;29.00;99.90
42803;DHT22;28447;48.682;9.022;2022-08-05T16:56:31;28.00;99.90
42803;DHT22;28447;48.682;9.022;2022-08-05T16:59:01;27.60;99.90
42803;DHT22;28447;48.682;9.022;2022-08-05T17:01:27;28.00;99.90